KJHW

Chautauqua County / Jamestown Airport

Jamestown, New York, USA
KJHW 171411Z 1714/1812 20009KT 6SM BR VCSH OVC007 FM171600 19006KT 5SM BR OVC015 FM172000 24009KT 5SM BR VCSH OVC025 FM172300 27006KT P6SM OVC020 FM180200 25005KT P6SM OVC040 FM180500 26004KT P6SM OVC007
Issued Valid From Valid To
Aug-17 @ 14:11 UTC
(43 minutes ago)
Aug-17 @ 14:00 UTC
(54 minutes ago)
Aug-18 @ 12:00 UTC
(in 21 hours)
Aug-17 @ 14:00 to Aug-17 @ 16:00
KJHW 171411Z 1714/1812 20009KT 6SM BR VCSH OVC007
Wind Visibility Clouds Conditions
200° at 9 knots 6 miles
  • Overcast at 700' AGL
  • Mist
From Aug-17 @ 16:00 to Aug-17 @ 20:00
FM171600 19006KT 5SM BR OVC015
Wind Visibility Clouds Conditions
190° at 6 knots 5 miles
  • Overcast at 1,500' AGL
  • Mist
From Aug-17 @ 20:00 to Aug-17 @ 23:00
FM172000 24009KT 5SM BR VCSH OVC025
Wind Visibility Clouds Conditions
240° at 9 knots 5 miles
  • Overcast at 2,500' AGL
  • Mist
From Aug-17 @ 23:00 to Aug-18 @ 02:00
FM172300 27006KT P6SM OVC020
Wind Visibility Clouds
270° at 6 knots Greater than 6 miles
  • Overcast at 2,000' AGL
From Aug-18 @ 02:00 to Aug-18 @ 05:00
FM180200 25005KT P6SM OVC040
Wind Visibility Clouds
250° at 5 knots Greater than 6 miles
  • Overcast at 4,000' AGL
From Aug-18 @ 05:00 to Aug-18 @ 12:00
FM180500 26004KT P6SM OVC007
Wind Visibility Clouds
260° at 4 knots Greater than 6 miles
  • Overcast at 700' AGL
KJHW 171411Z 1714/1812 20009KT 6SM BR VCSH OVC007 FM171600 19006KT 5SM BR OVC015 FM172000 24009KT 5SM BR VCSH OVC025 FM172300 27006KT P6SM OVC020 FM180200 25005KT P6SM OVC040 FM180500 26004KT P6SM OVC007
Issued Aug-17 @ 14:11 UTC
(43 minutes ago)
Valid From Aug-17 @ 14:00 UTC
(54 minutes ago)
Valid To Aug-18 @ 12:00 UTC
(in 21 hours)
Aug-17 @ 14:00 - Aug-17 @ 16:00
Wind Visibility
200° at 9 knots 6 miles
Clouds
  • Overcast at 700' AGL
Conditions
  • Mist
From Aug-17 @ 16:00 - Aug-17 @ 20:00
Wind Visibility
190° at 6 knots 5 miles
Clouds
  • Overcast at 1,500' AGL
Conditions
  • Mist
From Aug-17 @ 20:00 - Aug-17 @ 23:00
Wind Visibility
240° at 9 knots 5 miles
Clouds
  • Overcast at 2,500' AGL
Conditions
  • Mist
From Aug-17 @ 23:00 - Aug-18 @ 02:00
Wind Visibility
270° at 6 knots Greater than 6 miles
Clouds
  • Overcast at 2,000' AGL
From Aug-18 @ 02:00 - Aug-18 @ 05:00
Wind Visibility
250° at 5 knots Greater than 6 miles
Clouds
  • Overcast at 4,000' AGL
From Aug-18 @ 05:00 - Aug-18 @ 12:00
Wind Visibility
260° at 4 knots Greater than 6 miles
Clouds
  • Overcast at 700' AGL